Aviation Digital Data Service (ADDS)

Output produced by METARs form (1702 UTC 30 August 2016)
found at http://aviationweather.gov/adds/metars/
 
KINT 301120Z 3012/3112 00000KT P6SM SKC 
     FM301600 06008KT P6SM SCT040 SCT150